createdAt,value
2022-12-04T00:01:17.637Z,97774.06
2022-12-04T00:04:19.089Z,97769.13
2022-12-04T00:07:20.478Z,97776.03
2022-12-04T00:10:21.834Z,97760.75
2022-12-04T00:13:23.193Z,97757.34
2022-12-04T00:16:25.069Z,97770.03
2022-12-04T00:19:26.538Z,97768.50
2022-12-04T00:22:27.947Z,97778.81
2022-12-04T00:25:30.351Z,97768.78
2022-12-04T00:28:31.885Z,97767.13
2022-12-04T00:31:33.412Z,97771.56
2022-12-04T00:34:34.841Z,97780.09
2022-12-04T00:37:36.268Z,97782.75
2022-12-04T00:40:37.658Z,97780.25
2022-12-04T00:43:38.981Z,97770.91
2022-12-04T00:46:40.345Z,97780.31
2022-12-04T00:49:41.715Z,97768.34
2022-12-04T00:52:43.127Z,97771.03
2022-12-04T00:55:44.591Z,97765.16
2022-12-04T00:58:46.043Z,97770.41
2022-12-04T01:01:47.446Z,97757.72
2022-12-04T01:04:48.785Z,97759.47
2022-12-04T01:07:50.185Z,97760.41
2022-12-04T01:10:51.639Z,97759.19
2022-12-04T01:13:53.059Z,97754.22
2022-12-04T01:16:54.511Z,97756.66
2022-12-04T01:19:56.076Z,97759.34
2022-12-04T01:22:57.611Z,97760.19
2022-12-04T01:25:59.284Z,97752.50
2022-12-04T01:29:01.014Z,97760.06
2022-12-04T01:32:02.587Z,97759.28
2022-12-04T01:35:04.091Z,97765.41
2022-12-04T01:38:05.464Z,97755.97
2022-12-04T01:41:07.205Z,97765.16
2022-12-04T01:44:13.695Z,97767.00
2022-12-04T01:47:15.052Z,97766.25
2022-12-04T01:50:16.417Z,97768.78
2022-12-04T01:53:18.047Z,97775.66
2022-12-04T01:56:20.362Z,97769.69
2022-12-04T01:59:22.670Z,97768.03
2022-12-04T02:02:28.625Z,97771.59
2022-12-04T02:05:30.072Z,97754.75
2022-12-04T02:08:31.426Z,97759.91
2022-12-04T02:11:32.752Z,97752.63
2022-12-04T02:14:46.270Z,97751.13
2022-12-04T02:17:54.788Z,97749.44
2022-12-04T02:20:59.197Z,97744.31
2022-12-04T02:24:12.772Z,97741.84
2022-12-04T02:27:34.347Z,97741.81
2022-12-04T02:30:37.481Z,97745.03
2022-12-04T02:33:53.553Z,97746.72
2022-12-04T02:37:17.632Z,97749.94
2022-12-04T02:40:21.118Z,97745.72
2022-12-04T02:43:45.862Z,97750.78
2022-12-04T02:46:48.031Z,97750.53
2022-12-04T02:49:50.621Z,97751.38
2022-12-04T02:52:57.135Z,97745.19
2022-12-04T02:56:03.015Z,97748.59
2022-12-04T02:59:12.794Z,97740.88
2022-12-04T03:02:25.159Z,97741.78
2022-12-04T03:05:27.846Z,97746.94
2022-12-04T03:08:30.863Z,97741.06
2022-12-04T03:11:32.248Z,97746.19
2022-12-04T03:14:38.078Z,97747.75
2022-12-04T03:17:42.126Z,97736.56
2022-12-04T03:20:43.592Z,97741.88
2022-12-04T03:23:46.767Z,97729.94
2022-12-04T03:26:50.148Z,97726.50
2022-12-04T03:30:07.936Z,97724.81
2022-12-04T03:33:11.728Z,97718.91
2022-12-04T03:36:14.836Z,97717.97
2022-12-04T03:39:21.120Z,97724.88
2022-12-04T03:42:24.068Z,97724.09
2022-12-04T03:45:38.722Z,97719.91
2022-12-04T03:48:43.130Z,97721.72
2022-12-04T03:51:48.674Z,97720.91
2022-12-04T03:54:50.660Z,97719.03
2022-12-04T03:57:52.069Z,97719.03
2022-12-04T04:00:53.489Z,97735.25
2022-12-04T04:03:55.152Z,97737.97
2022-12-04T04:07:01.711Z,97736.25
2022-12-04T04:10:05.103Z,97747.50
2022-12-04T04:13:25.212Z,97747.50
2022-12-04T04:16:46.426Z,97746.84
2022-12-04T04:20:06.667Z,97743.41
2022-12-04T04:23:27.479Z,97755.41
2022-12-04T04:26:29.385Z,97751.25
2022-12-04T04:29:30.778Z,97751.38
2022-12-04T04:32:32.131Z,97748.91
2022-12-04T04:35:33.522Z,97753.28
2022-12-04T04:38:37.461Z,97752.47
2022-12-04T04:41:43.356Z,97757.69
2022-12-04T04:44:45.731Z,97753.47
2022-12-04T04:47:54.478Z,97754.34
2022-12-04T04:50:55.868Z,97753.53
2022-12-04T04:53:58.336Z,97752.84
2022-12-04T04:56:59.755Z,97756.22
2022-12-04T05:00:01.607Z,97756.97
2022-12-04T05:03:02.973Z,97755.25
2022-12-04T05:06:04.372Z,97762.16
2022-12-04T05:09:05.721Z,97760.47
2022-12-04T05:12:07.070Z,97756.97
2022-12-04T05:15:08.806Z,97744.13
2022-12-04T05:18:10.218Z,97745.06
2022-12-04T05:21:18.337Z,97747.66
2022-12-04T05:24:19.863Z,97747.72
2022-12-04T05:27:21.525Z,97749.41
2022-12-04T05:30:22.915Z,97749.28
2022-12-04T05:33:24.444Z,97744.03
2022-12-04T05:36:25.847Z,97743.22
2022-12-04T05:39:27.323Z,97748.47
2022-12-04T05:42:28.659Z,97752.00
2022-12-04T05:45:30.024Z,97746.88
2022-12-04T05:48:31.373Z,97751.19
2022-12-04T05:51:32.763Z,97758.13
2022-12-04T05:54:34.141Z,97752.09
2022-12-04T05:57:35.522Z,97753.81
2022-12-04T06:00:36.912Z,97753.91
2022-12-04T06:03:38.512Z,97752.22
2022-12-04T06:06:39.932Z,97754.78
2022-12-04T06:09:41.341Z,97751.38
2022-12-04T06:12:42.682Z,97752.16
2022-12-04T06:15:44.066Z,97750.34
2022-12-04T06:18:45.900Z,97756.31
2022-12-04T06:21:48.698Z,97755.53
2022-12-04T06:24:50.153Z,97759.03
2022-12-04T06:27:51.571Z,97757.22
2022-12-04T06:30:52.971Z,97759.78
2022-12-04T06:33:54.707Z,97759.72
2022-12-04T06:36:56.083Z,97761.41
2022-12-04T06:39:57.763Z,97754.59
2022-12-04T06:42:59.412Z,97752.03
2022-12-04T06:46:04.838Z,97756.22
2022-12-04T06:49:06.349Z,97766.31
2022-12-04T06:52:07.705Z,97762.91
2022-12-04T06:55:09.238Z,97756.06
2022-12-04T06:58:10.633Z,97759.59
2022-12-04T07:01:12.998Z,97767.22
2022-12-04T07:04:14.389Z,97767.31
2022-12-04T07:07:15.767Z,97768.16
2022-12-04T07:10:17.199Z,97768.25
2022-12-04T07:13:18.588Z,97766.53
2022-12-04T07:16:20.691Z,97763.16
2022-12-04T07:19:22.187Z,97771.72
2022-12-04T07:22:23.591Z,97762.38
2022-12-04T07:25:24.989Z,97769.22
2022-12-04T07:28:26.605Z,97776.84
2022-12-04T07:31:28.456Z,97776.84
2022-12-04T07:34:30.123Z,97790.59
2022-12-04T07:37:31.730Z,97791.44
2022-12-04T07:40:33.363Z,97797.56
2022-12-04T07:43:34.912Z,97796.91
2022-12-04T07:46:36.425Z,97795.22
2022-12-04T07:49:37.872Z,97796.19
2022-12-04T07:52:39.774Z,97786.88
2022-12-04T07:55:41.323Z,97791.25
2022-12-04T07:58:42.904Z,97795.56
2022-12-04T08:01:44.779Z,97791.38
2022-12-04T08:04:46.739Z,97794.69
2022-12-04T08:07:48.410Z,97797.31
2022-12-04T08:10:49.957Z,97805.91
2022-12-04T08:13:58.312Z,97807.50
2022-12-04T08:16:59.734Z,97803.25
2022-12-04T08:20:01.324Z,97806.75
2022-12-04T08:23:02.721Z,97803.44
2022-12-04T08:26:04.253Z,97800.97
2022-12-04T08:29:06.069Z,97794.28
2022-12-04T08:32:07.493Z,97790.06
2022-12-04T08:35:08.998Z,97790.94
2022-12-04T08:38:10.367Z,97791.97
2022-12-04T08:41:12.375Z,97786.97
2022-12-04T08:44:13.777Z,97787.06
2022-12-04T08:47:15.223Z,97779.47
2022-12-04T08:50:16.608Z,97787.25
2022-12-04T08:53:18.005Z,97781.34
2022-12-04T08:56:19.436Z,97780.53
2022-12-04T08:59:20.865Z,97778.16
2022-12-04T09:02:22.249Z,97773.66
2022-12-04T09:05:23.673Z,97777.00
2022-12-04T09:08:25.111Z,97769.47
2022-12-04T09:11:27.088Z,97766.25
2022-12-04T09:14:28.905Z,97768.94
2022-12-04T09:17:30.320Z,97774.06
2022-12-04T09:20:31.766Z,97773.94
2022-12-04T09:23:33.463Z,97774.72
2022-12-04T09:26:34.870Z,97768.13
2022-12-04T09:29:36.260Z,97770.72
2022-12-04T09:32:37.658Z,97781.16
2022-12-04T09:35:39.135Z,97779.94
2022-12-04T09:38:40.509Z,97776.56
2022-12-04T09:41:50.965Z,97783.34
2022-12-04T09:44:59.946Z,97779.16
2022-12-04T09:48:01.326Z,97793.84
2022-12-04T09:51:03.055Z,97774.13
2022-12-04T09:54:09.621Z,97781.13
2022-12-04T09:57:19.687Z,97783.03
2022-12-04T10:00:21.137Z,97778.91
2022-12-04T10:03:23.781Z,97775.63
2022-12-04T10:06:26.305Z,97778.19
2022-12-04T10:09:30.785Z,97772.19
2022-12-04T10:12:36.465Z,97778.31
2022-12-04T10:15:46.932Z,97778.38
2022-12-04T10:19:07.192Z,97775.03
2022-12-04T10:22:27.382Z,97783.34
2022-12-04T10:25:28.790Z,97784.13
2022-12-04T10:28:30.180Z,97782.31
2022-12-04T10:31:31.674Z,97788.25
2022-12-04T10:34:33.285Z,97789.78
2022-12-04T10:37:34.966Z,97789.59
2022-12-04T10:40:50.633Z,97800.06
2022-12-04T10:43:52.017Z,97807.09
2022-12-04T10:46:55.229Z,97812.25
2022-12-04T10:50:00.714Z,97819.91
2022-12-04T10:53:02.078Z,97829.41
2022-12-04T10:56:09.808Z,97822.53
2022-12-04T10:59:14.370Z,97827.63
2022-12-04T11:02:25.978Z,97836.19
2022-12-04T11:05:29.126Z,97846.56
2022-12-04T11:08:35.551Z,97854.31
2022-12-04T11:11:38.943Z,97861.25
2022-12-04T11:14:45.480Z,97863.00
2022-12-04T11:17:48.263Z,97868.31
2022-12-04T11:20:56.534Z,97860.44
2022-12-04T11:23:58.693Z,97858.63
2022-12-04T11:27:00.145Z,97854.34
2022-12-04T11:30:02.124Z,97847.41
2022-12-04T11:33:03.828Z,97852.63
2022-12-04T11:36:06.941Z,97843.97
2022-12-04T11:39:11.364Z,97845.69
2022-12-04T11:42:12.762Z,97850.03
2022-12-04T11:45:21.113Z,97856.06
2022-12-04T11:48:22.884Z,97849.19
2022-12-04T11:51:39.637Z,97851.03
2022-12-04T11:55:00.036Z,97857.84
2022-12-04T11:58:08.370Z,97862.03
2022-12-04T12:01:13.975Z,97866.44
2022-12-04T12:04:24.611Z,97863.94
2022-12-04T12:07:44.967Z,97863.94
2022-12-04T12:10:49.412Z,97854.66
2022-12-04T12:14:04.647Z,97853.84
2022-12-04T12:17:09.061Z,97852.97
2022-12-04T12:20:14.975Z,97851.25
2022-12-04T12:23:16.359Z,97845.19
2022-12-04T12:26:18.286Z,97846.13
2022-12-04T12:29:28.842Z,97843.47
2022-12-04T12:32:36.266Z,97845.16
2022-12-04T12:35:57.884Z,97844.22
2022-12-04T12:39:34.855Z,97831.19
2022-12-04T12:42:37.211Z,97840.69
2022-12-04T12:45:40.732Z,97837.34
2022-12-04T12:48:47.363Z,97831.34
2022-12-04T12:51:54.095Z,97828.78
2022-12-04T12:54:57.267Z,97830.44
2022-12-04T12:58:06.437Z,97820.16
2022-12-04T13:01:10.208Z,97812.44
2022-12-04T13:04:13.812Z,97799.56
2022-12-04T13:07:18.157Z,97804.53
2022-12-04T13:10:20.901Z,97807.81
2022-12-04T13:13:24.359Z,97813.97
2022-12-04T13:16:28.897Z,97813.28
2022-12-04T13:19:30.235Z,97820.97
2022-12-04T13:22:36.814Z,97818.44
2022-12-04T13:25:43.551Z,97823.69
2022-12-04T13:28:44.854Z,97822.91
2022-12-04T13:32:05.217Z,97816.00
2022-12-04T13:35:25.247Z,97816.09
2022-12-04T13:38:42.942Z,97811.81
2022-12-04T13:41:44.304Z,97793.81
2022-12-04T13:44:51.738Z,97786.09
2022-12-04T13:47:56.990Z,97801.34
2022-12-04T13:51:02.189Z,97798.88
2022-12-04T13:54:12.632Z,97802.13
2022-12-04T13:57:16.968Z,97804.59
2022-12-04T14:00:34.839Z,97798.78
2022-12-04T14:03:38.511Z,97797.19
2022-12-04T14:06:41.307Z,97780.09
2022-12-04T14:09:43.613Z,97785.31
2022-12-04T14:12:49.425Z,97786.09
2022-12-04T14:16:00.287Z,97776.81
2022-12-04T14:19:01.863Z,97773.06
2022-12-04T14:22:03.275Z,97778.22
2022-12-04T14:25:05.599Z,97771.34
2022-12-04T14:28:13.969Z,97770.50
2022-12-04T14:31:34.393Z,97766.22
2022-12-04T14:34:35.787Z,97763.47
2022-12-04T14:37:37.612Z,97764.31
2022-12-04T14:40:52.126Z,97758.38
2022-12-04T14:43:53.508Z,97757.38
2022-12-04T14:47:15.352Z,97756.53
2022-12-04T14:50:25.687Z,97754.81
2022-12-04T14:53:33.113Z,97754.91
2022-12-04T14:56:57.748Z,97757.41
2022-12-04T15:00:00.951Z,97757.47
2022-12-04T15:03:02.367Z,97749.91
2022-12-04T15:06:07.557Z,97754.97
2022-12-04T15:09:35.547Z,97756.72
2022-12-04T15:12:40.977Z,97756.72
2022-12-04T15:15:45.999Z,97766.06
2022-12-04T15:18:57.180Z,97760.03
2022-12-04T15:21:58.526Z,97770.34
2022-12-04T15:24:59.955Z,97770.34
2022-12-04T15:28:20.455Z,97758.31
2022-12-04T15:31:22.696Z,97756.47
2022-12-04T15:34:25.137Z,97759.84
2022-12-04T15:37:27.073Z,97757.13
2022-12-04T15:40:29.175Z,97761.31
2022-12-04T15:43:39.084Z,97755.44
2022-12-04T15:46:40.621Z,97758.06
2022-12-04T15:49:42.054Z,97751.22
2022-12-04T15:52:50.612Z,97751.16
2022-12-04T15:55:52.687Z,97756.28
2022-12-04T15:59:00.729Z,97749.47
2022-12-04T16:02:20.719Z,97759.69
2022-12-04T16:05:22.051Z,97761.41
2022-12-04T16:08:24.617Z,97757.97
2022-12-04T16:11:30.591Z,97759.75
2022-12-04T16:14:31.940Z,97760.53
2022-12-04T16:17:33.856Z,97763.16
2022-12-04T16:20:35.964Z,97762.19
2022-12-04T16:23:37.380Z,97760.31
2022-12-04T16:26:38.763Z,97755.25
2022-12-04T16:29:40.178Z,97758.75
2022-12-04T16:32:41.555Z,97756.97
2022-12-04T16:35:43.089Z,97756.16
2022-12-04T16:38:44.440Z,97763.06
2022-12-04T16:41:45.916Z,97757.91
2022-12-04T16:44:47.364Z,97755.25
2022-12-04T16:47:48.767Z,97741.56
2022-12-04T16:50:50.148Z,97751.81
2022-12-04T16:53:51.938Z,97745.84
2022-12-04T16:56:53.344Z,97749.28
2022-12-04T16:59:55.177Z,97748.41
2022-12-04T17:02:57.359Z,97750.97
2022-12-04T17:05:59.187Z,97751.81
2022-12-04T17:09:00.585Z,97744.22
2022-12-04T17:12:01.936Z,97751.97
2022-12-04T17:15:03.336Z,97751.91
2022-12-04T17:18:09.057Z,97751.81
2022-12-04T17:21:13.546Z,97754.38
2022-12-04T17:24:15.057Z,97743.34
2022-12-04T17:27:16.442Z,97744.19
2022-12-04T17:30:17.950Z,97748.53
2022-12-04T17:33:19.278Z,97755.47
2022-12-04T17:36:22.171Z,97755.50
2022-12-04T17:39:23.564Z,97753.72
2022-12-04T17:42:25.301Z,97749.47
2022-12-04T17:45:26.684Z,97755.47
2022-12-04T17:48:28.586Z,97747.53
2022-12-04T17:51:29.970Z,97750.94
2022-12-04T17:54:31.326Z,97762.91
2022-12-04T17:57:32.715Z,97763.78
2022-12-04T18:00:34.577Z,97768.19
2022-12-04T18:03:36.193Z,97770.06
2022-12-04T18:06:42.454Z,97769.97
2022-12-04T18:09:43.905Z,97783.78
2022-12-04T18:12:45.319Z,97791.47
2022-12-04T18:15:46.758Z,97787.97
2022-12-04T18:18:48.155Z,97790.63
2022-12-04T18:21:49.615Z,97793.03
2022-12-04T18:24:51.558Z,97792.34
2022-12-04T18:27:53.258Z,97788.06
2022-12-04T18:30:54.687Z,97786.19
2022-12-04T18:33:56.045Z,97779.44
2022-12-04T18:36:57.400Z,97777.72
2022-12-04T18:40:03.316Z,97781.06
2022-12-04T18:43:07.578Z,97793.13
2022-12-04T18:46:09.931Z,97787.16
2022-12-04T18:49:11.668Z,97795.78
2022-12-04T18:52:13.116Z,97793.03
2022-12-04T18:55:14.541Z,97801.78
2022-12-04T18:58:15.944Z,97806.94
2022-12-04T19:01:20.878Z,97800.16
2022-12-04T19:04:23.274Z,97795.06
2022-12-04T19:07:24.727Z,97795.09
2022-12-04T19:10:26.644Z,97798.53
2022-12-04T19:13:28.303Z,97795.09
2022-12-04T19:16:29.712Z,97789.09
2022-12-04T19:19:31.973Z,97784.84
2022-12-04T19:22:33.506Z,97793.41
2022-12-04T19:25:34.949Z,97800.31
2022-12-04T19:28:36.494Z,97786.56
2022-12-04T19:31:38.040Z,97791.78
2022-12-04T19:34:39.673Z,97802.88
2022-12-04T19:37:42.198Z,97813.19
2022-12-04T19:40:44.352Z,97813.81
2022-12-04T19:43:46.558Z,97806.13
2022-12-04T19:46:48.157Z,97808.72
2022-12-04T19:49:49.674Z,97812.09
2022-12-04T19:52:51.194Z,97816.44
2022-12-04T19:55:52.771Z,97817.25
2022-12-04T19:58:54.531Z,97818.94
2022-12-04T20:01:56.240Z,97812.09
2022-12-04T20:04:58.004Z,97812.09
2022-12-04T20:11:04.517Z,97807.88
2022-12-04T20:14:08.816Z,97808.81
2022-12-04T20:17:10.568Z,97810.53
2022-12-04T20:20:12.368Z,97805.41
2022-12-04T20:23:13.909Z,97816.56
2022-12-04T20:26:16.344Z,97816.56
2022-12-04T20:29:19.351Z,97822.69
2022-12-04T20:32:20.860Z,97822.63
2022-12-04T20:35:22.443Z,97825.97
2022-12-04T20:38:23.904Z,97825.13
2022-12-04T20:41:25.878Z,97828.56
2022-12-04T20:44:27.278Z,97820.84
2022-12-04T20:47:29.895Z,97818.41
2022-12-04T20:50:31.417Z,97820.91
2022-12-04T20:53:32.852Z,97824.31
2022-12-04T20:56:34.805Z,97809.66
2022-12-04T20:59:36.251Z,97814.75
2022-12-04T21:02:37.769Z,97826.81
2022-12-04T21:05:39.256Z,97820.72
2022-12-04T21:08:56.970Z,97812.16
2022-12-04T21:11:58.471Z,97817.28
2022-12-04T21:15:18.685Z,97819.00
2022-12-04T21:18:20.081Z,97829.28
2022-12-04T21:21:21.507Z,97833.50
2022-12-04T21:24:23.460Z,97832.47
2022-12-04T21:27:24.898Z,97831.72
2022-12-04T21:30:26.259Z,97833.31
2022-12-04T21:33:29.138Z,97838.38
2022-12-04T21:36:30.630Z,97837.50
2022-12-04T21:39:32.005Z,97846.09
2022-12-04T21:42:34.559Z,97850.38
2022-12-04T21:45:35.982Z,97865.81
2022-12-04T21:48:37.442Z,97881.31
2022-12-04T21:55:00.276Z,97907.03
2022-12-04T21:58:01.752Z,97905.28
2022-12-04T22:01:08.408Z,97901.91
2022-12-04T22:04:09.836Z,97907.97
2022-12-04T22:07:11.174Z,97914.09
2022-12-04T22:10:12.621Z,97920.16
2022-12-04T22:13:14.098Z,97915.00
2022-12-04T22:16:16.004Z,97903.09
2022-12-04T22:19:17.422Z,97920.19
2022-12-04T22:22:18.803Z,97922.75
2022-12-04T22:25:20.207Z,97922.84
2022-12-04T22:28:21.601Z,97902.16
2022-12-04T22:31:24.390Z,97912.56
2022-12-04T22:34:25.880Z,97923.66
2022-12-04T22:37:27.232Z,97926.25
2022-12-04T22:40:28.656Z,97921.13
2022-12-04T22:43:30.174Z,97931.41
2022-12-04T22:46:31.741Z,97924.53
2022-12-04T22:49:33.172Z,97935.63
2022-12-04T22:52:34.621Z,97929.66
2022-12-04T22:55:36.031Z,97929.69
2022-12-04T22:58:37.499Z,97941.72
2022-12-04T23:01:38.888Z,97943.50
2022-12-04T23:04:40.359Z,97941.75
2022-12-04T23:07:41.809Z,97938.34
2022-12-04T23:10:43.306Z,97944.44
2022-12-04T23:13:44.765Z,97939.28
2022-12-04T23:16:46.271Z,97941.03
2022-12-04T23:19:47.653Z,97935.09
2022-12-04T23:22:54.617Z,97955.69
2022-12-04T23:25:56.017Z,97961.63
2022-12-04T23:28:57.421Z,97967.59
2022-12-04T23:31:58.923Z,97971.81
2022-12-04T23:35:00.441Z,97977.03
2022-12-04T23:38:01.772Z,97982.19
2022-12-04T23:41:07.061Z,97990.78
2022-12-04T23:44:08.446Z,97989.03
2022-12-04T23:47:09.849Z,97995.91
2022-12-04T23:50:11.298Z,97992.47
2022-12-04T23:53:13.066Z,98001.22
2022-12-04T23:56:18.587Z,97993.63
2022-12-04T23:59:21.936Z,97996.19
